createdAt,value
2024-04-21T07:07:26.296Z,97.94
2024-04-21T07:29:53.919Z,99.88
2024-04-21T07:30:55.433Z,97.18
2024-04-21T07:31:57.249Z,97.26
2024-04-21T07:32:58.870Z,96.23
2024-04-21T07:34:00.505Z,94.58
2024-04-21T07:35:02.094Z,93.74
2024-04-21T07:36:04.362Z,92.79
2024-04-21T07:37:05.928Z,91.67
2024-04-21T07:38:07.462Z,90.70
2024-04-21T07:39:09.306Z,90.01
2024-04-21T07:40:11.269Z,88.35
2024-04-21T07:42:05.752Z,88.38
2024-04-21T07:43:07.444Z,89.09
2024-04-21T07:44:08.968Z,88.76
2024-04-21T07:53:38.469Z,90.73
2024-04-21T07:55:38.683Z,90.65
2024-04-21T07:57:38.339Z,89.01
2024-04-21T07:59:36.552Z,88.45
2024-04-21T08:00:41.002Z,87.42
2024-04-21T08:01:42.757Z,87.98
2024-04-21T08:02:44.449Z,88.08
2024-04-21T08:03:46.080Z,85.15
2024-04-21T08:04:47.624Z,85.79
2024-04-21T08:05:49.527Z,84.03
2024-04-21T08:06:51.101Z,83.45
2024-04-21T08:07:52.754Z,83.42
2024-04-21T08:09:00.932Z,82.57
2024-04-21T08:10:09.154Z,82.22
2024-04-21T08:11:10.985Z,82.15
2024-04-21T08:12:12.575Z,80.49
2024-04-21T08:13:14.107Z,79.34
2024-04-21T08:14:15.632Z,79.64
2024-04-21T08:15:17.289Z,78.04
2024-04-21T08:16:18.819Z,77.04
2024-04-21T08:17:20.406Z,78.96
2024-04-21T08:18:22.051Z,80.20
2024-04-21T08:19:23.738Z,79.89
2024-04-21T08:20:25.254Z,80.86
2024-04-21T08:21:26.735Z,80.52
2024-04-21T08:22:28.365Z,79.62
2024-04-21T08:23:31.499Z,80.27
2024-04-21T08:24:33.206Z,79.83
2024-04-21T08:25:35.103Z,81.52
2024-04-21T08:28:11.080Z,83.83
2024-04-21T08:30:37.950Z,83.16
2024-04-21T08:31:39.565Z,83.36
2024-04-21T08:32:41.220Z,83.48
2024-04-21T08:33:43.776Z,81.89
2024-04-21T08:34:45.309Z,81.97
2024-04-21T08:35:57.724Z,82.53
2024-04-21T08:36:59.359Z,82.55
2024-04-21T08:38:01.089Z,82.65
2024-04-21T08:39:02.671Z,84.72
2024-04-21T08:40:05.949Z,84.71
2024-04-21T09:09:37.977Z,86.35
2024-04-21T09:10:39.477Z,86.00
2024-04-21T09:11:41.020Z,82.06
2024-04-21T09:12:43.839Z,81.82
2024-04-21T09:13:45.415Z,80.98
2024-04-21T09:14:46.901Z,79.11
2024-04-21T09:15:48.398Z,80.90
2024-04-21T09:16:50.648Z,80.00
2024-04-21T09:17:52.475Z,78.05
2024-04-21T09:18:54.442Z,77.32
2024-04-21T09:19:56.115Z,78.39
2024-04-21T09:20:58.008Z,78.50
2024-04-21T09:21:59.567Z,76.23
2024-04-21T09:23:01.321Z,77.41
2024-04-21T09:24:03.024Z,77.81
2024-04-21T09:25:08.252Z,76.65
2024-04-21T09:43:48.349Z,84.46
2024-04-21T09:45:54.938Z,85.71
2024-04-21T10:00:10.037Z,87.70
2024-04-21T10:02:23.518Z,87.65
2024-04-21T10:04:23.089Z,85.07
2024-04-21T10:05:28.416Z,84.59
2024-04-21T10:06:32.129Z,84.93
2024-04-21T10:07:39.625Z,84.74
2024-04-21T10:08:41.568Z,83.19
2024-04-21T10:09:43.486Z,82.56
2024-04-21T10:10:50.703Z,78.00
2024-04-21T10:11:52.297Z,80.88
2024-04-21T10:12:56.663Z,79.77
2024-04-21T10:14:00.693Z,78.83
2024-04-21T10:15:03.777Z,76.39
2024-04-21T10:16:06.345Z,77.82
2024-04-21T10:17:07.978Z,77.02
2024-04-21T10:18:09.975Z,75.03
2024-04-21T10:19:11.879Z,77.08
2024-04-21T10:20:13.397Z,77.33
2024-04-21T10:21:15.806Z,74.65
2024-04-21T10:22:18.342Z,74.13
2024-04-21T10:23:20.292Z,71.63
2024-04-21T10:24:21.841Z,72.97
2024-04-21T10:25:23.745Z,71.95
2024-04-21T10:26:25.382Z,74.34
2024-04-21T10:27:26.917Z,72.88
2024-04-21T10:28:30.496Z,69.34
2024-04-21T10:29:32.503Z,70.09
2024-04-21T10:30:35.049Z,70.09
2024-04-21T10:31:36.954Z,69.30
2024-04-21T10:32:38.623Z,69.14
2024-04-21T10:33:41.981Z,67.61
2024-04-21T10:34:48.034Z,68.97
2024-04-21T10:35:52.577Z,69.28
2024-04-21T10:36:54.162Z,70.67
2024-04-21T10:37:58.637Z,69.09
2024-04-21T10:39:00.440Z,69.37
2024-04-21T10:40:06.970Z,70.58
2024-04-21T10:41:09.175Z,69.72
2024-04-21T10:42:12.233Z,72.23
2024-04-21T10:43:15.428Z,69.93
2024-04-21T10:44:17.119Z,68.59
2024-04-21T10:45:18.850Z,67.57
2024-04-21T10:46:20.510Z,67.91
2024-04-21T10:47:22.029Z,66.24
2024-04-21T10:48:24.367Z,67.60
2024-04-21T10:49:26.114Z,71.06
2024-04-21T10:50:27.727Z,70.62
2024-04-21T10:51:30.418Z,69.15
2024-04-21T10:52:32.116Z,70.49
2024-04-21T10:53:33.770Z,72.70
2024-04-21T10:54:36.589Z,74.24
2024-04-21T10:55:38.207Z,73.90
2024-04-21T10:56:39.896Z,74.65
2024-04-21T10:57:42.966Z,75.95
2024-04-21T10:58:49.295Z,75.95
2024-04-21T10:59:50.789Z,77.06
2024-04-21T11:00:52.417Z,74.84
2024-04-21T11:01:55.742Z,74.05
2024-04-21T11:02:57.752Z,67.22
2024-04-21T11:04:02.203Z,69.70
2024-04-21T11:05:05.472Z,71.08
2024-04-21T11:06:09.399Z,71.62
2024-04-21T11:07:11.871Z,71.05
2024-04-21T11:08:13.912Z,72.44
2024-04-21T11:09:15.409Z,73.60
2024-04-21T11:10:17.033Z,73.60
2024-04-21T11:11:18.845Z,71.74
2024-04-21T11:12:21.215Z,70.67
2024-04-21T11:13:22.839Z,64.62
2024-04-21T11:14:26.549Z,65.70
2024-04-21T11:15:28.554Z,63.51
2024-04-21T11:16:31.958Z,63.99
2024-04-21T11:17:34.180Z,67.17
2024-04-21T11:18:35.767Z,66.33
2024-04-21T11:19:37.437Z,69.38
2024-04-21T11:20:39.109Z,68.93
2024-04-21T11:21:40.808Z,69.44
2024-04-21T11:22:43.225Z,68.82
2024-04-21T11:23:45.384Z,69.48
2024-04-21T11:24:47.548Z,70.72
2024-04-21T11:25:53.839Z,70.84
2024-04-21T11:26:59.778Z,69.73
2024-04-21T11:28:09.586Z,69.00
2024-04-21T11:29:11.549Z,69.86
2024-04-21T11:30:13.189Z,70.92
2024-04-21T11:31:14.820Z,69.30
2024-04-21T11:32:16.406Z,69.33
2024-04-21T11:33:17.937Z,69.25
2024-04-21T11:34:19.568Z,68.33
2024-04-21T11:35:21.416Z,68.24
2024-04-21T11:36:24.033Z,67.46
2024-04-21T11:37:25.806Z,67.41
2024-04-21T11:38:27.487Z,68.30
2024-04-21T11:39:29.106Z,69.52
2024-04-21T11:40:30.850Z,67.24
2024-04-21T11:41:32.475Z,67.89
2024-04-21T11:42:33.979Z,66.88
2024-04-21T11:43:38.756Z,65.58
2024-04-21T11:44:42.581Z,66.34
2024-04-21T11:45:44.565Z,65.95
2024-04-21T11:46:46.184Z,65.38
2024-04-21T11:47:55.095Z,63.40
2024-04-21T11:48:56.776Z,59.61
2024-04-21T11:49:58.316Z,60.03
2024-04-21T11:51:00.970Z,57.05
2024-04-21T11:52:02.542Z,56.45
2024-04-21T11:53:05.547Z,57.84
2024-04-21T11:54:08.292Z,57.75
2024-04-21T11:55:09.818Z,54.88
2024-04-21T11:56:11.351Z,56.71
2024-04-21T11:57:12.860Z,56.72
2024-04-21T11:58:14.420Z,55.85
2024-04-21T11:59:16.037Z,55.21
2024-04-21T12:00:17.610Z,58.29
2024-04-21T12:01:22.300Z,57.60
2024-04-21T12:02:27.955Z,57.99
2024-04-21T12:03:29.551Z,61.07
2024-04-21T12:04:31.127Z,63.26
2024-04-21T12:05:32.709Z,63.57
2024-04-21T12:06:34.184Z,65.12
2024-04-21T12:07:35.645Z,65.03
2024-04-21T12:08:37.129Z,66.60
2024-04-21T12:09:38.647Z,65.14
2024-04-21T12:10:40.321Z,67.28
2024-04-21T12:11:42.652Z,68.58
2024-04-21T12:12:44.258Z,67.42
2024-04-21T12:13:45.755Z,67.53
2024-04-21T12:14:47.239Z,69.26
2024-04-21T12:15:49.028Z,69.61
2024-04-21T12:19:02.144Z,68.32
2024-04-21T12:20:03.840Z,67.05
2024-04-21T12:21:05.434Z,67.72
2024-04-21T12:22:07.023Z,69.26
2024-04-21T12:24:50.815Z,71.20
2024-04-21T12:25:52.328Z,72.26
2024-04-21T12:26:54.210Z,69.98
2024-04-21T12:29:12.306Z,71.40
2024-04-21T12:30:13.969Z,72.06
2024-04-21T12:31:15.818Z,71.04
2024-04-21T12:32:17.514Z,71.95
2024-04-21T12:33:19.063Z,71.90
2024-04-21T12:34:20.621Z,71.56
2024-04-21T12:36:25.705Z,70.44
2024-04-21T12:37:27.246Z,68.56
2024-04-21T12:38:28.747Z,69.54
2024-04-21T12:39:30.247Z,68.02
2024-04-21T12:40:31.900Z,70.39
2024-04-21T12:41:34.592Z,70.59
2024-04-21T12:42:36.319Z,70.55
2024-04-21T12:43:37.861Z,69.50
2024-04-21T12:44:39.354Z,70.02
2024-04-21T12:45:40.844Z,67.84
2024-04-21T12:46:42.599Z,68.03
2024-04-21T12:47:44.137Z,70.03
2024-04-21T12:48:45.680Z,69.93
2024-04-21T12:49:47.150Z,69.81
2024-04-21T13:00:30.272Z,69.94
2024-04-21T13:02:36.298Z,71.23
2024-04-21T13:11:28.160Z,68.87
2024-04-21T13:13:39.312Z,69.89
2024-04-21T13:15:49.716Z,66.96
2024-04-21T13:17:56.915Z,67.11
2024-04-21T13:18:59.241Z,67.71
2024-04-21T13:20:00.717Z,66.38
2024-04-21T13:21:02.258Z,63.00
2024-04-21T13:22:04.167Z,60.90
2024-04-21T13:23:05.666Z,62.67
2024-04-21T13:24:07.538Z,64.25
2024-04-21T13:25:09.310Z,65.99
2024-04-21T13:26:11.625Z,66.59
2024-04-21T13:27:14.480Z,65.36
2024-04-21T13:29:41.101Z,66.19
2024-04-21T13:32:03.967Z,66.92
2024-04-21T13:33:05.938Z,67.73
2024-04-21T13:34:07.481Z,67.99
2024-04-21T13:35:09.019Z,67.68
2024-04-21T13:36:14.934Z,69.64
2024-04-21T13:37:21.802Z,68.13
2024-04-21T13:38:23.375Z,69.69
2024-04-21T13:39:24.943Z,68.66
2024-04-21T13:40:26.531Z,69.83
2024-04-21T13:41:31.243Z,69.68
2024-04-21T13:42:34.672Z,68.76
2024-04-21T13:43:36.263Z,70.75
2024-04-21T13:44:37.789Z,70.01
2024-04-21T13:45:39.350Z,68.86
2024-04-21T13:46:41.010Z,69.76
2024-04-21T13:47:42.678Z,68.89
2024-04-21T13:48:44.210Z,68.46
2024-04-21T13:49:45.838Z,67.83
2024-04-21T13:50:47.492Z,68.45
2024-04-21T13:51:49.089Z,67.70
2024-04-21T13:52:51.005Z,67.96
2024-04-21T13:53:52.668Z,67.86
2024-04-21T13:54:54.164Z,68.24
2024-04-21T13:55:55.680Z,67.15
2024-04-21T13:56:57.746Z,66.41
2024-04-21T13:57:59.297Z,67.05
2024-04-21T13:59:00.841Z,65.28
2024-04-21T14:00:02.876Z,61.52
2024-04-21T14:01:04.586Z,61.49
2024-04-21T14:02:08.179Z,58.19
2024-04-21T14:03:09.699Z,57.53
2024-04-21T14:04:12.012Z,59.69
2024-04-21T14:05:13.624Z,60.02
2024-04-21T14:06:18.863Z,61.81
2024-04-21T14:07:29.638Z,64.62
2024-04-21T14:08:31.144Z,64.71
2024-04-21T14:09:32.640Z,64.11
2024-04-21T14:10:34.861Z,64.78
2024-04-21T14:11:36.516Z,64.80
2024-04-21T14:12:38.099Z,65.68
2024-04-21T14:13:39.609Z,64.59
2024-04-21T14:14:41.165Z,62.76
2024-04-21T14:15:42.650Z,61.10
2024-04-21T14:16:44.233Z,60.25
2024-04-21T14:17:45.913Z,61.37
2024-04-21T14:18:50.733Z,61.25
2024-04-21T14:19:53.180Z,62.95
2024-04-21T14:20:56.227Z,62.64
2024-04-21T14:21:57.998Z,64.32
2024-04-21T14:22:59.532Z,64.18
2024-04-21T14:24:02.508Z,65.25
2024-04-21T14:25:05.009Z,65.83
2024-04-21T14:26:06.549Z,66.29
2024-04-21T14:27:08.066Z,66.65
2024-04-21T14:28:09.602Z,67.55
2024-04-21T14:29:11.201Z,67.92
2024-04-21T14:30:12.911Z,67.58
2024-04-21T14:31:14.547Z,66.33
2024-04-21T14:32:18.194Z,66.90
2024-04-21T14:33:22.255Z,67.99
2024-04-21T14:34:23.939Z,68.53
2024-04-21T14:35:25.545Z,68.72
2024-04-21T14:36:28.513Z,68.23
2024-04-21T14:37:30.599Z,68.32
2024-04-21T14:38:32.156Z,68.48
2024-04-21T14:39:33.734Z,68.46
2024-04-21T14:40:35.321Z,68.07
2024-04-21T14:41:37.839Z,67.33
2024-04-21T14:42:40.950Z,67.96
2024-04-21T14:43:42.529Z,68.52
2024-04-21T14:44:50.497Z,69.40
2024-04-21T14:45:56.412Z,70.37
2024-04-21T14:46:58.005Z,68.30
2024-04-21T14:48:00.215Z,67.15
2024-04-21T14:49:05.918Z,66.30
2024-04-21T14:50:07.572Z,65.50
2024-04-21T14:51:09.137Z,65.78
2024-04-21T14:52:10.851Z,62.95
2024-04-21T14:53:14.242Z,62.01
2024-04-21T14:54:15.793Z,61.99
2024-04-21T14:55:17.482Z,62.77
2024-04-21T14:56:21.914Z,61.34
2024-04-21T14:57:23.402Z,59.87
2024-04-21T14:58:25.603Z,59.65
2024-04-21T14:59:27.148Z,58.76
2024-04-21T15:00:28.914Z,59.05
2024-04-21T15:01:30.488Z,59.34
2024-04-21T15:02:32.073Z,57.32
2024-04-21T15:03:33.660Z,58.43
2024-04-21T15:04:37.654Z,58.37
2024-04-21T15:05:40.595Z,57.50
2024-04-21T15:06:43.493Z,59.07
2024-04-21T15:07:45.110Z,60.01
2024-04-21T15:08:47.896Z,61.68
2024-04-21T15:09:49.418Z,62.26
2024-04-21T15:10:51.557Z,64.54
2024-04-21T15:11:53.173Z,65.78
2024-04-21T15:12:57.426Z,65.81
2024-04-21T15:13:59.102Z,64.31
2024-04-21T15:15:00.714Z,62.62
2024-04-21T15:16:02.350Z,62.80
2024-04-21T15:17:03.955Z,60.99
2024-04-21T15:18:06.401Z,59.59
2024-04-21T15:19:08.098Z,59.17
2024-04-21T15:20:09.996Z,60.51
2024-04-21T15:21:12.104Z,60.91
2024-04-21T15:22:13.606Z,61.50
2024-04-21T15:23:15.165Z,62.36
2024-04-21T15:24:16.662Z,62.18
2024-04-21T15:25:18.266Z,63.25
2024-04-21T15:26:19.795Z,63.96
2024-04-21T15:27:21.363Z,65.35
2024-04-21T15:28:22.926Z,63.71
2024-04-21T15:29:24.551Z,61.43
2024-04-21T15:30:26.085Z,62.20
2024-04-21T15:31:27.742Z,62.91
2024-04-21T15:32:29.425Z,61.63
2024-04-21T15:33:31.082Z,61.76
2024-04-21T15:34:32.829Z,61.89
2024-04-21T15:35:34.438Z,62.75
2024-04-21T15:36:35.937Z,62.93
2024-04-21T15:37:39.683Z,64.02
2024-04-21T15:38:41.288Z,64.79
2024-04-21T15:39:42.806Z,64.08
2024-04-21T15:40:44.378Z,64.17
2024-04-21T15:41:45.882Z,65.73
2024-04-21T15:42:47.501Z,66.16
2024-04-21T15:43:49.029Z,64.74
2024-04-21T15:44:50.612Z,64.68
2024-04-21T15:45:52.149Z,64.14
2024-04-21T15:46:53.711Z,65.08
2024-04-21T15:47:55.394Z,65.18
2024-04-21T15:48:57.120Z,65.59
2024-04-21T15:50:01.232Z,65.21
2024-04-21T15:51:08.544Z,67.41
2024-04-21T15:52:10.104Z,70.20
2024-04-21T15:53:13.293Z,69.18
2024-04-21T15:54:14.789Z,69.49
2024-04-21T15:55:16.837Z,69.27
2024-04-21T15:56:18.568Z,69.83
2024-04-21T15:57:21.027Z,70.93
2024-04-21T15:58:22.659Z,72.34
2024-04-21T15:59:24.186Z,72.43
2024-04-21T16:00:25.725Z,72.50
2024-04-21T16:01:27.265Z,73.78
2024-04-21T16:02:28.849Z,74.13
2024-04-21T16:03:30.600Z,73.57
2024-04-21T16:04:32.151Z,73.17
2024-04-21T16:05:33.648Z,73.61
2024-04-21T16:06:35.158Z,75.55
2024-04-21T16:07:37.316Z,75.46
2024-04-21T16:08:38.910Z,76.13
2024-04-21T16:09:40.467Z,75.15
2024-04-21T16:10:42.730Z,76.35
2024-04-21T16:11:44.276Z,77.65
2024-04-21T16:12:45.835Z,78.43
2024-04-21T16:13:49.538Z,79.49
2024-04-21T16:14:51.512Z,79.95
2024-04-21T16:15:52.992Z,79.87
2024-04-21T16:16:56.519Z,80.40
2024-04-21T16:17:58.133Z,80.11
2024-04-21T16:18:59.796Z,80.26
2024-04-21T16:20:01.465Z,79.60
2024-04-21T16:21:03.116Z,80.15
2024-04-21T16:22:04.748Z,80.94
2024-04-21T16:23:06.269Z,80.67
2024-04-21T16:24:07.900Z,81.42
2024-04-21T16:25:09.802Z,82.63
2024-04-21T16:26:11.423Z,82.40
2024-04-21T16:27:13.045Z,81.94
